Time;durP1;ratioP1;P1;durP2;ratioP2;P2;SDS_P1;SDS_P2;PMS_P1;PMS_P2;Temp;Humidity;BMP_temperature;BMP_pressure;BME280_temperature;BME280_humidity;BME280_pressure;Samples;Min_cycle;Max_cycle;Signal;HPM_P1;HPM_P2
2023/05/12 00:00:51;;;;;;;76.15;70.90;;;;;;;;;;5048033;28;20392;-56
2023/05/12 00:03:16;;;;;;;76.30;71.22;;;;;;;;;;5047853;28;20112;-55
2023/05/12 00:05:41;;;;;;;74.95;69.35;;;;;;;;;;5048142;28;20040;-57
2023/05/12 00:08:06;;;;;;;67.20;62.60;;;;;;;;;;5047983;28;20133;-59
2023/05/12 00:10:34;;;;;;;69.13;64.25;;;;;;;;;;5030432;28;20127;-60
2023/05/12 00:12:59;;;;;;;73.22;68.05;;;;;;;;;;5029916;28;20028;-57
2023/05/12 00:15:24;;;;;;;65.30;60.80;;;;;;;;;;5047945;28;20520;-59
2023/05/12 00:17:51;;;;;;;54.75;51.08;;;;;;;;;;5047868;28;20115;-57
2023/05/12 00:20:16;;;;;;;64.57;60.10;;;;;;;;;;5047840;28;20021;-56
2023/05/12 00:22:41;;;;;;;67.38;62.63;;;;;;;;;;5047962;28;20029;-58
2023/05/12 00:25:07;;;;;;;72.03;66.93;;;;;;;;;;5047568;28;20032;-53
2023/05/12 00:27:32;;;;;;;58.00;53.97;;;;;;;;;;5047704;28;20017;-54
2023/05/12 00:29:57;;;;;;;71.68;66.68;;;;;;;;;;5047536;28;20024;-58
2023/05/12 00:32:23;;;;;;;77.97;72.43;;;;;;;;;;5047574;28;20441;-58
2023/05/12 00:34:49;;;;;;;81.80;76.15;;;;;;;;;;5047207;28;20021;-59
2023/05/12 00:37:14;;;;;;;80.90;75.40;;;;;;;;;;5047761;28;20028;-58
2023/05/12 00:39:40;;;;;;;86.10;79.82;;;;;;;;;;5047503;28;20029;-54
2023/05/12 00:42:05;;;;;;;74.82;69.68;;;;;;;;;;5047724;28;20024;-55
2023/05/12 00:44:30;;;;;;;69.03;64.15;;;;;;;;;;5047366;28;20101;-57
2023/05/12 00:46:56;;;;;;;61.85;57.60;;;;;;;;;;5011805;28;20462;-56
2023/05/12 00:49:21;;;;;;;44.85;41.53;;;;;;;;;;5046990;28;20060;-54
2023/05/12 00:51:47;;;;;;;42.65;39.35;;;;;;;;;;5027604;28;20037;-59
2023/05/12 00:54:12;;;;;;;38.05;35.22;;;;;;;;;;5046992;28;20021;-53
2023/05/12 00:56:38;;;;;;;35.55;33.05;;;;;;;;;;5046699;28;20021;-57
2023/05/12 00:59:06;;;;;;;37.67;34.83;;;;;;;;;;5046613;28;20049;-53
2023/05/12 01:01:32;;;;;;;30.73;28.48;;;;;;;;;;5047036;28;20025;-59
2023/05/12 01:03:57;;;;;;;27.40;25.13;;;;;;;;;;5046597;28;20423;-57
2023/05/12 01:06:37;;;;;;;27.77;25.65;;;;;;;;;;5011044;28;20060;-58
2023/05/12 01:09:02;;;;;;;36.33;33.65;;;;;;;;;;5046673;28;20029;-55
2023/05/12 01:11:28;;;;;;;38.22;35.58;;;;;;;;;;5046574;28;20021;-56
2023/05/12 01:13:53;;;;;;;37.60;34.97;;;;;;;;;;5046644;28;20388;-57
2023/05/12 01:16:21;;;;;;;33.60;31.05;;;;;;;;;;5046669;28;20051;-56
2023/05/12 01:18:49;;;;;;;36.35;33.90;;;;;;;;;;5047033;28;20036;-57
2023/05/12 01:21:15;;;;;;;33.67;31.30;;;;;;;;;;5046840;28;20396;-57
2023/05/12 01:23:43;;;;;;;23.40;21.63;;;;;;;;;;5046539;28;20755;-58
2023/05/12 01:26:08;;;;;;;32.85;30.27;;;;;;;;;;5046245;28;20021;-59
2023/05/12 01:28:35;;;;;;;35.70;33.00;;;;;;;;;;5046239;28;20086;-59
2023/05/12 01:31:00;;;;;;;27.27;25.25;;;;;;;;;;5046731;28;20048;-57
2023/05/12 01:33:26;;;;;;;24.13;22.13;;;;;;;;;;5046446;28;20674;-57
2023/05/12 01:35:51;;;;;;;28.60;26.23;;;;;;;;;;5046312;28;20025;-59
2023/05/12 01:38:16;;;;;;;27.25;25.17;;;;;;;;;;5046558;28;20075;-57
2023/05/12 01:40:41;;;;;;;26.67;24.23;;;;;;;;;;5027340;28;20392;-58
2023/05/12 01:43:07;;;;;;;32.25;29.58;;;;;;;;;;5046281;28;20108;-60
2023/05/12 01:45:32;;;;;;;31.92;29.63;;;;;;;;;;5046146;28;20025;-54
2023/05/12 01:47:57;;;;;;;25.10;22.95;;;;;;;;;;5046086;28;20059;-56
2023/05/12 01:50:23;;;;;;;29.75;27.67;;;;;;;;;;5046203;28;20025;-58
2023/05/12 01:52:48;;;;;;;28.95;26.77;;;;;;;;;;5046221;28;20460;-57
2023/05/12 01:55:13;;;;;;;26.92;24.98;;;;;;;;;;5045787;28;20028;-58
2023/05/12 01:57:39;;;;;;;33.58;30.77;;;;;;;;;;5026224;28;20025;-58
2023/05/12 02:00:04;;;;;;;33.65;31.30;;;;;;;;;;5045589;28;20050;-53
2023/05/12 02:02:30;;;;;;;24.63;22.67;;;;;;;;;;5046441;28;20024;-58
2023/05/12 02:04:55;;;;;;;38.00;35.28;;;;;;;;;;5045044;28;20028;-58
2023/05/12 02:07:21;;;;;;;32.83;30.38;;;;;;;;;;5045563;28;20147;-56
2023/05/12 02:09:47;;;;;;;32.15;29.63;;;;;;;;;;5027964;28;20114;-56
2023/05/12 02:12:12;;;;;;;37.22;34.50;;;;;;;;;;5045597;28;20021;-56
2023/05/12 02:14:37;;;;;;;30.23;27.50;;;;;;;;;;5045431;28;20276;-57
2023/05/12 02:17:03;;;;;;;39.25;36.60;;;;;;;;;;5009809;28;20484;-59
2023/05/12 02:19:28;;;;;;;33.95;31.40;;;;;;;;;;5027320;28;20113;-57
2023/05/12 02:21:54;;;;;;;41.88;38.78;;;;;;;;;;4993389;28;20037;-59
2023/05/12 02:24:20;;;;;;;36.83;34.15;;;;;;;;;;5045324;28;20427;-54
2023/05/12 02:26:45;;;;;;;33.60;31.02;;;;;;;;;;5045749;28;20048;-55
2023/05/12 02:29:10;;;;;;;39.15;36.35;;;;;;;;;;5045711;28;20112;-58
2023/05/12 02:31:36;;;;;;;33.83;31.33;;;;;;;;;;5045499;28;20032;-54
2023/05/12 02:34:02;;;;;;;37.50;34.80;;;;;;;;;;5045756;28;20132;-56
2023/05/12 02:36:27;;;;;;;32.72;29.92;;;;;;;;;;5045461;28;20019;-60
2023/05/12 02:38:53;;;;;;;36.30;33.70;;;;;;;;;;5045606;28;20024;-57
2023/05/12 02:41:18;;;;;;;26.48;24.17;;;;;;;;;;5045587;28;20021;-56
2023/05/12 02:43:43;;;;;;;31.42;29.08;;;;;;;;;;5045374;28;20124;-59
2023/05/12 02:46:08;;;;;;;28.98;26.50;;;;;;;;;;5025990;28;20036;-57
2023/05/12 02:48:34;;;;;;;30.75;28.33;;;;;;;;;;5045508;28;20084;-58
2023/05/12 02:50:59;;;;;;;32.08;29.73;;;;;;;;;;5045415;28;20024;-53
2023/05/12 02:53:25;;;;;;;34.30;31.73;;;;;;;;;;5045007;28;20028;-58
2023/05/12 02:55:51;;;;;;;35.80;33.15;;;;;;;;;;5045087;28;20079;-59
2023/05/12 02:58:17;;;;;;;39.88;36.60;;;;;;;;;;5044988;28;20028;-54
2023/05/12 03:00:42;;;;;;;40.22;37.03;;;;;;;;;;5044671;28;20064;-57
2023/05/12 03:03:07;;;;;;;35.33;32.78;;;;;;;;;;5045312;28;20035;-57
2023/05/12 03:05:32;;;;;;;36.40;33.05;;;;;;;;;;5009321;28;20469;-58
2023/05/12 03:07:58;;;;;;;39.42;36.33;;;;;;;;;;5044874;28;20009;-58
2023/05/12 03:10:23;;;;;;;47.28;43.97;;;;;;;;;;5044819;28;20036;-57
2023/05/12 03:12:48;;;;;;;32.40;29.33;;;;;;;;;;5044741;28;20028;-59
2023/05/12 03:15:14;;;;;;;38.95;36.13;;;;;;;;;;5045873;28;20116;-59
2023/05/12 03:17:39;;;;;;;27.42;25.25;;;;;;;;;;5048966;28;20095;-55
2023/05/12 03:20:05;;;;;;;34.20;31.58;;;;;;;;;;5048827;28;20048;-59
2023/05/12 03:22:30;;;;;;;29.75;27.52;;;;;;;;;;5048875;28;20021;-57
2023/05/12 03:24:56;;;;;;;25.15;23.15;;;;;;;;;;5048982;28;20017;-55
2023/05/12 03:27:21;;;;;;;37.42;34.47;;;;;;;;;;5049287;28;20021;-58
2023/05/12 03:29:46;;;;;;;32.20;29.52;;;;;;;;;;5048485;28;20021;-56
2023/05/12 03:32:12;;;;;;;32.22;29.77;;;;;;;;;;5049020;28;20013;-59
2023/05/12 03:34:37;;;;;;;32.28;29.52;;;;;;;;;;5048654;28;20029;-55
2023/05/12 03:37:02;;;;;;;29.25;26.90;;;;;;;;;;5048703;28;20063;-59
2023/05/12 03:39:28;;;;;;;33.67;31.08;;;;;;;;;;5048578;28;20036;-56
2023/05/12 03:41:53;;;;;;;32.90;30.42;;;;;;;;;;5048501;28;20485;-58
2023/05/12 03:44:18;;;;;;;34.83;32.22;;;;;;;;;;5048577;28;20406;-57
2023/05/12 03:46:44;;;;;;;34.75;32.13;;;;;;;;;;5048835;28;20021;-55
2023/05/12 03:49:09;;;;;;;34.88;31.77;;;;;;;;;;5048435;28;20033;-57
2023/05/12 03:51:34;;;;;;;37.35;34.17;;;;;;;;;;5048421;28;20557;-59
2023/05/12 03:54:00;;;;;;;39.20;36.08;;;;;;;;;;5048432;28;20428;-60
2023/05/12 03:56:26;;;;;;;28.20;25.80;;;;;;;;;;5047839;28;20024;-57
2023/05/12 03:58:51;;;;;;;38.83;35.78;;;;;;;;;;5047758;28;20073;-58
2023/05/12 04:01:17;;;;;;;41.47;38.22;;;;;;;;;;5048504;28;20068;-56
2023/05/12 04:03:42;;;;;;;33.47;30.90;;;;;;;;;;5030253;28;20083;-55
2023/05/12 04:06:07;;;;;;;29.52;27.13;;;;;;;;;;5047834;28;20033;-58
2023/05/12 04:08:33;;;;;;;32.58;29.60;;;;;;;;;;5047815;28;20056;-58
2023/05/12 04:10:59;;;;;;;32.72;29.80;;;;;;;;;;5047570;28;20028;-57
2023/05/12 04:13:25;;;;;;;40.10;36.90;;;;;;;;;;5029928;28;20431;-57
2023/05/12 04:15:53;;;;;;;31.27;28.73;;;;;;;;;;5047876;28;20044;-58
2023/05/12 04:18:18;;;;;;;37.08;34.22;;;;;;;;;;5047679;28;20025;-59
2023/05/12 04:20:44;;;;;;;31.70;29.13;;;;;;;;;;4995830;28;20043;-55
2023/05/12 04:23:09;;;;;;;32.22;29.73;;;;;;;;;;5047372;28;20479;-57
2023/05/12 04:25:38;;;;;;;28.50;26.25;;;;;;;;;;5047542;28;20013;-59
2023/05/12 04:28:04;;;;;;;45.15;41.78;;;;;;;;;;5047115;28;20457;-60
2023/05/12 04:30:29;;;;;;;42.08;38.78;;;;;;;;;;5048156;28;20086;-57
2023/05/12 04:32:54;;;;;;;37.72;34.78;;;;;;;;;;5047967;28;20052;-59
2023/05/12 04:35:20;;;;;;;33.55;30.67;;;;;;;;;;5047472;28;20021;-58
2023/05/12 04:37:45;;;;;;;27.80;25.38;;;;;;;;;;5047452;28;20028;-54
2023/05/12 04:40:10;;;;;;;27.85;25.42;;;;;;;;;;5047346;28;20048;-58
2023/05/12 04:42:36;;;;;;;24.27;22.33;;;;;;;;;;5047337;28;20025;-56
2023/05/12 04:45:01;;;;;;;27.02;24.70;;;;;;;;;;5047514;28;20032;-55
2023/05/12 04:47:27;;;;;;;26.48;24.30;;;;;;;;;;5047399;28;20162;-57
2023/05/12 04:49:52;;;;;;;35.33;32.63;;;;;;;;;;5047339;28;20025;-57
2023/05/12 04:52:17;;;;;;;32.08;29.13;;;;;;;;;;5047200;28;20028;-60
2023/05/12 04:54:43;;;;;;;32.30;29.73;;;;;;;;;;5046623;28;20017;-58
2023/05/12 04:57:08;;;;;;;31.80;29.27;;;;;;;;;;5047003;28;20499;-56
2023/05/12 04:59:34;;;;;;;32.28;29.58;;;;;;;;;;5046643;28;20061;-57
2023/05/12 05:02:00;;;;;;;39.95;36.95;;;;;;;;;;5047331;28;20025;-57
2023/05/12 05:04:25;;;;;;;26.50;23.90;;;;;;;;;;5046867;28;20025;-54
2023/05/12 05:06:50;;;;;;;36.38;33.17;;;;;;;;;;5046858;28;20017;-59
2023/05/12 05:09:16;;;;;;;34.45;31.30;;;;;;;;;;5047068;28;20484;-55
2023/05/12 05:11:41;;;;;;;35.72;32.90;;;;;;;;;;5046673;28;20380;-55
2023/05/12 05:14:06;;;;;;;31.88;29.25;;;;;;;;;;5046564;28;20025;-56
2023/05/12 05:16:31;;;;;;;30.42;27.98;;;;;;;;;;5046627;28;20468;-59
2023/05/12 05:18:57;;;;;;;33.15;30.60;;;;;;;;;;5046682;28;20037;-57
2023/05/12 05:21:22;;;;;;;41.65;38.45;;;;;;;;;;5046685;28;20024;-54
2023/05/12 05:23:47;;;;;;;34.00;31.35;;;;;;;;;;5046446;28;20618;-59
2023/05/12 05:26:12;;;;;;;35.85;32.65;;;;;;;;;;5046431;28;20044;-60
2023/05/12 05:28:38;;;;;;;33.25;30.65;;;;;;;;;;5046860;28;20051;-58
2023/05/12 05:31:04;;;;;;;34.33;31.70;;;;;;;;;;5046329;28;20021;-60
2023/05/12 05:33:30;;;;;;;28.35;26.05;;;;;;;;;;5046058;28;20384;-57
2023/05/12 05:35:55;;;;;;;34.13;30.55;;;;;;;;;;5046181;28;20021;-55
2023/05/12 05:38:20;;;;;;;23.88;21.35;;;;;;;;;;5045530;28;20116;-60
2023/05/12 05:40:46;;;;;;;31.90;29.10;;;;;;;;;;5045600;28;20392;-57
2023/05/12 05:43:11;;;;;;;33.28;30.52;;;;;;;;;;5046184;28;20021;-60
2023/05/12 05:45:36;;;;;;;24.52;22.58;;;;;;;;;;5045827;28;20476;-55
2023/05/12 05:48:01;;;;;;;32.10;29.58;;;;;;;;;;5045903;28;20108;-58
2023/05/12 05:50:27;;;;;;;33.00;30.15;;;;;;;;;;4994176;28;20365;-57
2023/05/12 05:52:53;;;;;;;31.23;28.63;;;;;;;;;;5045791;28;20048;-56
2023/05/12 05:55:19;;;;;;;37.67;34.33;;;;;;;;;;5045438;28;20679;-56
2023/05/12 05:57:45;;;;;;;30.77;28.10;;;;;;;;;;5044851;28;20832;-58
2023/05/12 06:00:11;;;;;;;15.20;13.70;;;;;;;;;;5047947;28;20044;-57
2023/05/12 06:02:36;;;;;;;15.98;14.23;;;;;;;;;;4995076;28;20032;-58
2023/05/12 06:05:02;;;;;;;15.65;14.05;;;;;;;;;;5046009;28;20017;-61
2023/05/12 06:07:27;;;;;;;11.88;8.65;;;;;;;;;;5055231;28;20423;-61
2023/05/12 06:09:53;;;;;;;11.07;5.88;;;;;;;;;;5049079;28;20021;-55
2023/05/12 06:12:18;;;;;;;11.35;9.15;;;;;;;;;;5053917;28;20021;-57
2023/05/12 06:14:43;;;;;;;13.68;10.52;;;;;;;;;;5047298;28;20032;-57
2023/05/12 06:17:09;;;;;;;12.85;10.05;;;;;;;;;;5009489;28;20078;-59
2023/05/12 06:19:34;;;;;;;12.95;11.68;;;;;;;;;;5063789;28;20081;-60
2023/05/12 06:21:59;;;;;;;14.95;13.52;;;;;;;;;;5057555;28;20021;-56
2023/05/12 06:24:25;;;;;;;15.75;11.15;;;;;;;;;;5045299;28;20469;-56
2023/05/12 06:26:50;;;;;;;13.50;11.93;;;;;;;;;;5046421;28;20438;-56
2023/05/12 06:29:15;;;;;;;10.85;7.70;;;;;;;;;;5044443;28;20040;-53
2023/05/12 06:31:40;;;;;;;15.13;12.45;;;;;;;;;;5045024;28;20025;-56
2023/05/12 06:34:06;;;;;;;14.23;12.93;;;;;;;;;;5027774;28;20025;-57
2023/05/12 06:36:31;;;;;;;19.02;17.33;;;;;;;;;;5045287;28;20067;-56
2023/05/12 06:38:56;;;;;;;11.18;10.05;;;;;;;;;;5054929;28;20032;-59
2023/05/12 06:41:23;;;;;;;21.05;16.67;;;;;;;;;;5054946;28;20056;-57
2023/05/12 06:43:49;;;;;;;17.52;15.93;;;;;;;;;;5051179;28;20041;-53
2023/05/12 06:46:14;;;;;;;19.55;15.27;;;;;;;;;;5052257;28;20057;-56
2023/05/12 06:48:39;;;;;;;18.77;16.77;;;;;;;;;;5044569;28;20047;-55
2023/05/12 06:51:05;;;;;;;13.13;11.80;;;;;;;;;;5014207;28;20025;-60
2023/05/12 06:53:31;;;;;;;11.73;9.82;;;;;;;;;;5045135;28;20552;-55
2023/05/12 06:55:56;;;;;;;19.08;17.30;;;;;;;;;;5054309;28;20392;-55
2023/05/12 06:58:21;;;;;;;14.43;13.10;;;;;;;;;;5055805;28;20178;-57
2023/05/12 07:00:49;;;;;;;19.02;17.05;;;;;;;;;;5057639;28;20068;-58
2023/05/12 07:03:15;;;;;;;25.38;20.33;;;;;;;;;;5028273;28;20020;-55
2023/05/12 07:05:40;;;;;;;30.58;27.30;;;;;;;;;;5046210;28;20429;-57
2023/05/12 07:08:05;;;;;;;32.78;26.65;;;;;;;;;;5051889;28;20492;-61
2023/05/12 07:10:32;;;;;;;29.20;26.67;;;;;;;;;;5051158;28;20053;-56
2023/05/12 07:12:57;;;;;;;36.72;33.70;;;;;;;;;;5048302;28;20028;-56
2023/05/12 07:15:22;;;;;;;48.92;45.22;;;;;;;;;;5053187;28;20033;-55
2023/05/12 07:17:47;;;;;;;23.55;21.73;;;;;;;;;;5052540;28;20021;-61
2023/05/12 07:20:13;;;;;;;36.22;32.55;;;;;;;;;;5049960;28;20041;-57
2023/05/12 07:22:38;;;;;;;18.63;16.90;;;;;;;;;;5044077;28;20029;-54
2023/05/12 07:25:03;;;;;;;17.33;15.52;;;;;;;;;;5052455;28;20016;-57
2023/05/12 07:27:29;;;;;;;13.68;12.13;;;;;;;;;;4992383;28;20387;-56
2023/05/12 07:29:54;;;;;;;18.35;16.73;;;;;;;;;;5044817;28;20056;-60
2023/05/12 07:32:20;;;;;;;18.05;14.82;;;;;;;;;;5076152;28;20495;-55
2023/05/12 07:34:45;;;;;;;19.00;14.13;;;;;;;;;;5051562;28;20038;-55
2023/05/12 07:37:11;;;;;;;17.50;15.65;;;;;;;;;;5046737;28;20434;-57
2023/05/12 07:39:37;;;;;;;19.58;17.80;;;;;;;;;;5051430;28;20032;-58
2023/05/12 07:42:02;;;;;;;18.77;16.33;;;;;;;;;;5044880;28;20032;-57
2023/05/12 07:44:28;;;;;;;23.25;21.13;;;;;;;;;;5009905;28;20040;-58
2023/05/12 07:46:53;;;;;;;18.98;16.92;;;;;;;;;;5042947;28;20039;-58
2023/05/12 07:49:18;;;;;;;21.63;19.42;;;;;;;;;;5049032;28;20090;-53
2023/05/12 07:51:44;;;;;;;22.23;15.90;;;;;;;;;;5040262;28;20075;-59
2023/05/12 07:54:09;;;;;;;37.22;27.63;;;;;;;;;;5036274;28;20097;-58
2023/05/12 07:56:34;;;;;;;22.90;21.00;;;;;;;;;;5043484;28;20029;-58
2023/05/12 07:59:00;;;;;;;35.78;29.55;;;;;;;;;;5053079;28;20056;-53
2023/05/12 08:01:25;;;;;;;28.33;25.42;;;;;;;;;;5041110;28;20115;-53
2023/05/12 08:03:50;;;;;;;27.08;24.42;;;;;;;;;;5061382;28;20036;-56
2023/05/12 08:06:16;;;;;;;21.80;20.00;;;;;;;;;;5063193;28;20031;-58
2023/05/12 08:08:41;;;;;;;17.65;15.75;;;;;;;;;;5052409;28;20029;-55
2023/05/12 08:11:07;;;;;;;21.90;19.67;;;;;;;;;;5008602;28;20033;-57
2023/05/12 08:13:32;;;;;;;19.60;17.70;;;;;;;;;;5047179;28;20036;-61
2023/05/12 08:15:57;;;;;;;21.60;17.13;;;;;;;;;;5037349;28;20027;-59
2023/05/12 08:18:23;;;;;;;31.10;24.33;;;;;;;;;;5054334;28;20016;-62
2023/05/12 08:20:49;;;;;;;20.05;18.20;;;;;;;;;;5053536;28;20040;-59
2023/05/12 08:23:15;;;;;;;15.75;13.82;;;;;;;;;;5039338;28;20403;-58
2023/05/12 08:25:43;;;;;;;19.63;17.98;;;;;;;;;;5053696;28;20017;-61
2023/05/12 08:28:08;;;;;;;21.23;19.17;;;;;;;;;;5056010;28;20380;-62
2023/05/12 08:30:33;;;;;;;13.43;12.07;;;;;;;;;;5049364;28;20455;-59
2023/05/12 08:32:59;;;;;;;21.27;19.60;;;;;;;;;;5058714;28;20451;-66
2023/05/12 08:35:25;;;;;;;39.45;36.38;;;;;;;;;;5049415;28;20093;-62
2023/05/12 08:37:50;;;;;;;143.10;130.88;;;;;;;;;;5049316;28;20111;-58
2023/05/12 08:40:22;;;;;;;120.65;110.93;;;;;;;;;;5029722;28;20140;-58
2023/05/12 08:42:54;;;;;;;200.05;178.50;;;;;;;;;;5051259;28;20066;-60
2023/05/12 08:45:21;;;;;;;183.73;164.02;;;;;;;;;;5053230;28;20028;-59
2023/05/12 08:47:48;;;;;;;182.73;164.80;;;;;;;;;;5050233;28;20021;-57
2023/05/12 08:50:15;;;;;;;156.20;142.00;;;;;;;;;;5055417;28;20380;-57
2023/05/12 08:52:40;;;;;;;148.02;135.65;;;;;;;;;;5046914;28;20013;-54
2023/05/12 08:55:06;;;;;;;150.00;137.80;;;;;;;;;;5064782;28;20519;-58
2023/05/12 08:57:32;;;;;;;129.80;120.10;;;;;;;;;;5063271;28;20246;-57
2023/05/12 08:59:58;;;;;;;122.15;113.10;;;;;;;;;;5051014;28;20076;-56
2023/05/12 09:02:24;;;;;;;6.13;3.38;;;;;;;;;;5033805;28;20388;-57
2023/05/12 09:04:50;;;;;;;7.10;4.10;;;;;;;;;;5030905;28;20028;-58
2023/05/12 09:07:16;;;;;;;6.75;3.53;;;;;;;;;;5052392;28;20016;-57
2023/05/12 09:09:44;;;;;;;4.70;3.10;;;;;;;;;;5047987;28;20028;-57
2023/05/12 09:12:11;;;;;;;7.80;3.08;;;;;;;;;;5050681;28;20052;-59
2023/05/12 09:14:37;;;;;;;8.25;3.50;;;;;;;;;;5046021;28;20032;-62
2023/05/12 09:17:03;;;;;;;9.23;3.50;;;;;;;;;;5050214;28;20410;-62
2023/05/12 09:19:29;;;;;;;5.53;3.30;;;;;;;;;;5050830;28;20036;-60
2023/05/12 09:21:54;;;;;;;9.25;3.38;;;;;;;;;;5056860;28;20053;-61
2023/05/12 09:24:21;;;;;;;7.43;4.03;;;;;;;;;;5049997;28;20487;-59
2023/05/12 09:26:51;;;;;;;6.35;2.92;;;;;;;;;;5048797;28;20354;-57
2023/05/12 09:29:16;;;;;;;5.05;3.55;;;;;;;;;;5045356;28;20055;-61
2023/05/12 09:31:49;;;;;;;6.90;3.53;;;;;;;;;;5047111;28;20036;-61
2023/05/12 09:34:14;;;;;;;4.72;3.33;;;;;;;;;;5026377;28;20391;-60
2023/05/12 09:36:40;;;;;;;6.90;3.22;;;;;;;;;;5053872;28;20020;-63
2023/05/12 09:39:06;;;;;;;4.85;3.33;;;;;;;;;;5029448;28;20040;-64
2023/05/12 09:41:35;;;;;;;5.57;3.42;;;;;;;;;;5048266;28;20024;-59
2023/05/12 09:44:00;;;;;;;5.45;2.90;;;;;;;;;;5044839;28;20108;-56
2023/05/12 09:46:26;;;;;;;4.10;2.72;;;;;;;;;;5045833;28;20516;-59
2023/05/12 09:48:54;;;;;;;4.90;2.70;;;;;;;;;;5050075;28;20064;-61
2023/05/12 09:51:19;;;;;;;4.95;2.97;;;;;;;;;;5055181;28;20032;-60
2023/05/12 09:53:45;;;;;;;5.05;2.55;;;;;;;;;;5047717;28;20013;-60
2023/05/12 09:56:14;;;;;;;7.72;2.60;;;;;;;;;;4999356;28;20040;-62
2023/05/12 09:58:43;;;;;;;7.15;2.72;;;;;;;;;;4999744;28;20081;-61
2023/05/12 10:01:12;;;;;;;3.42;2.40;;;;;;;;;;5016911;28;20045;-63
2023/05/12 10:03:39;;;;;;;8.70;2.42;;;;;;;;;;5019477;28;20706;-63
2023/05/12 10:06:06;;;;;;;4.45;2.58;;;;;;;;;;5022993;28;20029;-61
2023/05/12 10:08:33;;;;;;;4.28;2.63;;;;;;;;;;5021192;28;20323;-63
2023/05/12 10:11:00;;;;;;;3.97;2.67;;;;;;;;;;5022900;28;20041;-62
2023/05/12 10:13:25;;;;;;;4.97;2.65;;;;;;;;;;5022811;28;20080;-62
2023/05/12 10:15:53;;;;;;;4.35;2.58;;;;;;;;;;5022733;28;20037;-62
2023/05/12 10:18:19;;;;;;;2.97;2.67;;;;;;;;;;5022766;28;20116;-63
2023/05/12 10:20:45;;;;;;;5.85;2.78;;;;;;;;;;5021850;28;20132;-59
2023/05/12 10:23:12;;;;;;;8.75;3.60;;;;;;;;;;5021141;28;20064;-61
2023/05/12 10:25:39;;;;;;;5.25;2.95;;;;;;;;;;5022280;28;20112;-60
2023/05/12 10:28:04;;;;;;;4.22;2.60;;;;;;;;;;5042382;28;20029;-60
2023/05/12 10:30:30;;;;;;;4.07;2.50;;;;;;;;;;5008857;28;20036;-62
2023/05/12 10:32:56;;;;;;;5.40;2.40;;;;;;;;;;5061373;28;20012;-62
2023/05/12 10:35:30;;;;;;;5.47;2.60;;;;;;;;;;5065128;28;20423;-62
2023/05/12 10:37:59;;;;;;;6.60;2.80;;;;;;;;;;5065386;28;20349;-61
2023/05/12 10:40:25;;;;;;;4.55;2.83;;;;;;;;;;5065014;28;20031;-60
2023/05/12 10:42:51;;;;;;;3.85;2.50;;;;;;;;;;5065141;28;20036;-59
2023/05/12 10:45:17;;;;;;;4.82;2.60;;;;;;;;;;5065187;28;20112;-62
2023/05/12 10:47:43;;;;;;;3.58;2.70;;;;;;;;;;5063647;28;20034;-61
2023/05/12 10:50:12;;;;;;;4.00;2.72;;;;;;;;;;5047515;28;20103;-58
2023/05/12 10:52:37;;;;;;;6.63;2.97;;;;;;;;;;5043943;28;20021;-60
2023/05/12 10:55:03;;;;;;;6.13;3.40;;;;;;;;;;5045195;28;20025;-62
2023/05/12 10:57:29;;;;;;;4.70;3.25;;;;;;;;;;5050288;28;20028;-62
2023/05/12 10:59:58;;;;;;;5.10;2.90;;;;;;;;;;5027162;28;20049;-60
2023/05/12 11:02:31;;;;;;;;;;;;;;;;;;5029486;28;20033;-59
2023/05/12 11:05:00;;;;;;;4.13;2.75;;;;;;;;;;5027952;28;19999;-60
2023/05/12 11:07:25;;;;;;;;;;;;;;;;;;5025622;28;20591;-58
2023/05/12 11:09:51;;;;;;;8.07;3.08;;;;;;;;;;5028661;28;20391;-56
2023/05/12 11:12:17;;;;;;;3.97;2.60;;;;;;;;;;5029617;28;20021;-57
2023/05/12 11:14:43;;;;;;;6.60;3.42;;;;;;;;;;5030237;28;20033;-58
2023/05/12 11:17:08;;;;;;;4.13;3.40;;;;;;;;;;5033952;28;20029;-61
2023/05/12 11:19:34;;;;;;;5.47;3.20;;;;;;;;;;5029508;28;20599;-60
2023/05/12 11:22:06;;;;;;;5.78;3.72;;;;;;;;;;5034071;28;20399;-57
2023/05/12 11:24:32;;;;;;;6.13;3.53;;;;;;;;;;5025272;28;20021;-59
2023/05/12 11:26:57;;;;;;;5.10;3.60;;;;;;;;;;5028964;28;20067;-59
2023/05/12 11:29:22;;;;;;;5.38;3.67;;;;;;;;;;5041188;28;20033;-58
2023/05/12 11:31:51;;;;;;;8.00;4.97;;;;;;;;;;5029142;28;20018;-60
2023/05/12 11:34:20;;;;;;;8.25;4.18;;;;;;;;;;5025259;28;20026;-58
2023/05/12 11:36:46;;;;;;;8.70;3.90;;;;;;;;;;5032455;28;20443;-59
2023/05/12 11:39:18;;;;;;;6.03;3.58;;;;;;;;;;5033427;28;20033;-59
2023/05/12 11:41:43;;;;;;;7.10;3.70;;;;;;;;;;5038437;28;20491;-58
2023/05/12 11:44:16;;;;;;;13.77;7.35;;;;;;;;;;5034303;28;20116;-58
2023/05/12 11:46:52;;;;;;;7.28;4.00;;;;;;;;;;5027972;28;20037;-59
2023/05/12 11:49:17;;;;;;;6.78;4.45;;;;;;;;;;5044727;28;20491;-57
2023/05/12 11:51:42;;;;;;;8.05;4.55;;;;;;;;;;5045218;28;20017;-60
2023/05/12 11:54:07;;;;;;;9.93;4.22;;;;;;;;;;5035535;28;20033;-57
2023/05/12 11:56:33;;;;;;;7.45;4.60;;;;;;;;;;5033541;28;20060;-57
2023/05/12 11:58:59;;;;;;;8.20;4.53;;;;;;;;;;5039269;28;20484;-57
2023/05/12 12:01:24;;;;;;;9.07;5.38;;;;;;;;;;5011823;28;20536;-60
2023/05/12 12:03:51;;;;;;;8.85;4.90;;;;;;;;;;5057489;28;20028;-58
2023/05/12 12:06:17;;;;;;;7.18;5.00;;;;;;;;;;5040141;28;20439;-60
2023/05/12 12:08:55;;;;;;;11.57;5.47;;;;;;;;;;5049191;28;20017;-60
2023/05/12 12:11:21;;;;;;;9.77;5.72;;;;;;;;;;5047753;28;20021;-60
2023/05/12 12:13:51;;;;;;;10.20;5.28;;;;;;;;;;5049064;28;20488;-58
2023/05/12 12:16:16;;;;;;;8.95;5.40;;;;;;;;;;5052062;28;20028;-60
2023/05/12 12:18:41;;;;;;;8.85;5.82;;;;;;;;;;5058671;28;20028;-59
2023/05/12 12:21:07;;;;;;;12.48;6.18;;;;;;;;;;5047209;28;20538;-60
2023/05/12 12:23:32;;;;;;;8.75;4.85;;;;;;;;;;5053835;28;20044;-61
2023/05/12 12:25:57;;;;;;;7.78;4.40;;;;;;;;;;5056317;28;20040;-62
2023/05/12 12:28:23;;;;;;;6.32;4.32;;;;;;;;;;5058897;28;20367;-61
2023/05/12 12:30:48;;;;;;;9.07;4.60;;;;;;;;;;5056072;28;20033;-61
2023/05/12 12:33:13;;;;;;;5.57;3.90;;;;;;;;;;5047478;28;20032;-60
2023/05/12 12:35:38;;;;;;;9.32;5.38;;;;;;;;;;5055739;28;20388;-61
2023/05/12 12:38:04;;;;;;;6.85;4.45;;;;;;;;;;5050174;28;20032;-62
2023/05/12 12:40:29;;;;;;;13.07;5.97;;;;;;;;;;5053302;28;20559;-62
2023/05/12 12:42:54;;;;;;;10.27;6.85;;;;;;;;;;5058429;28;20028;-61
2023/05/12 12:45:20;;;;;;;9.05;5.65;;;;;;;;;;5031291;28;20035;-61
2023/05/12 12:47:45;;;;;;;16.75;9.27;;;;;;;;;;5034468;28;20167;-60
2023/05/12 12:50:10;;;;;;;18.30;7.97;;;;;;;;;;5049481;28;20701;-62
2023/05/12 12:52:36;;;;;;;16.10;7.55;;;;;;;;;;5052342;28;20473;-61
2023/05/12 12:55:02;;;;;;;6.18;4.18;;;;;;;;;;5047666;28;20016;-62
2023/05/12 12:57:28;;;;;;;6.57;4.03;;;;;;;;;;5048086;28;20404;-61
2023/05/12 12:59:53;;;;;;;7.40;4.25;;;;;;;;;;5062208;28;20060;-57
2023/05/12 13:02:19;;;;;;;5.55;3.88;;;;;;;;;;5065456;28;20536;-61
2023/05/12 13:04:44;;;;;;;7.05;4.25;;;;;;;;;;5048483;28;20032;-64
2023/05/12 13:07:09;;;;;;;8.20;4.05;;;;;;;;;;5048294;28;20029;-60
2023/05/12 13:09:34;;;;;;;5.78;4.32;;;;;;;;;;5058521;28;20060;-59
2023/05/12 13:12:00;;;;;;;7.10;4.38;;;;;;;;;;5066964;28;20023;-63
2023/05/12 13:14:25;;;;;;;6.35;4.38;;;;;;;;;;5055412;28;20446;-61
2023/05/12 13:16:51;;;;;;;7.97;5.28;;;;;;;;;;5045998;28;20032;-60
2023/05/12 13:19:17;;;;;;;9.27;5.40;;;;;;;;;;5050383;28;20032;-60
2023/05/12 13:21:42;;;;;;;9.48;5.50;;;;;;;;;;5053136;28;20029;-61
2023/05/12 13:24:07;;;;;;;9.48;5.05;;;;;;;;;;5053244;28;20329;-64
2023/05/12 13:26:32;;;;;;;10.68;5.50;;;;;;;;;;5046881;28;20033;-62
2023/05/12 13:28:58;;;;;;;15.15;5.60;;;;;;;;;;5049683;28;20028;-62
2023/05/12 13:31:23;;;;;;;9.38;5.50;;;;;;;;;;5055303;28;20020;-61
2023/05/12 13:33:49;;;;;;;9.90;5.22;;;;;;;;;;5051849;28;20020;-61
2023/05/12 13:36:14;;;;;;;10.25;5.00;;;;;;;;;;5052295;28;20021;-64
2023/05/12 13:38:39;;;;;;;43.60;40.05;;;;;;;;;;5045010;28;20028;-63
2023/05/12 13:41:05;;;;;;;263.60;177.65;;;;;;;;;;5045981;28;20024;-62
2023/05/12 13:43:30;;;;;;;281.85;180.30;;;;;;;;;;5046313;28;20082;-64
2023/05/12 13:45:55;;;;;;;16.60;11.50;;;;;;;;;;5046062;28;20033;-64
2023/05/12 13:48:21;;;;;;;155.35;115.63;;;;;;;;;;5045900;28;20447;-61
2023/05/12 13:50:46;;;;;;;11.38;6.47;;;;;;;;;;5046100;28;20384;-63
2023/05/12 13:53:11;;;;;;;8.82;5.85;;;;;;;;;;5045817;28;20028;-63
2023/05/12 13:55:37;;;;;;;11.25;5.47;;;;;;;;;;5045773;28;20021;-64
2023/05/12 13:58:03;;;;;;;11.32;6.18;;;;;;;;;;5046176;28;20067;-67
2023/05/12 14:00:28;;;;;;;9.50;6.65;;;;;;;;;;5044657;28;20064;-63
2023/05/12 14:02:55;;;;;;;12.45;6.70;;;;;;;;;;5026607;28;20115;-67
2023/05/12 14:05:20;;;;;;;11.43;6.50;;;;;;;;;;5027857;28;20027;-67
2023/05/12 14:07:46;;;;;;;13.45;6.82;;;;;;;;;;5046046;28;20029;-65
2023/05/12 14:10:11;;;;;;;17.75;7.10;;;;;;;;;;5046102;28;20035;-62
2023/05/12 14:12:36;;;;;;;11.00;7.95;;;;;;;;;;5045914;28;20096;-62
2023/05/12 14:15:02;;;;;;;12.65;7.30;;;;;;;;;;5045680;28;20025;-63
2023/05/12 14:17:27;;;;;;;11.70;6.97;;;;;;;;;;5045649;28;20487;-60